createdAt,value
2024-01-06T00:00:06.148Z,7.00
2024-01-06T00:02:13.437Z,7.72
2024-01-06T00:04:15.027Z,6.97
2024-01-06T00:06:17.560Z,7.18
2024-01-06T00:08:19.109Z,7.07
2024-01-06T00:10:21.088Z,7.00
2024-01-06T00:12:22.649Z,7.03
2024-01-06T00:14:24.171Z,7.28
2024-01-06T00:16:27.995Z,7.88
2024-01-06T00:18:30.990Z,7.75
2024-01-06T00:20:32.544Z,7.45
2024-01-06T00:22:34.056Z,8.00
2024-01-06T00:24:35.593Z,8.07
2024-01-06T00:26:37.163Z,7.70
2024-01-06T00:28:40.110Z,7.60
2024-01-06T00:30:41.654Z,7.95
2024-01-06T00:32:43.268Z,7.38
2024-01-06T00:34:44.824Z,7.78
2024-01-06T00:36:46.417Z,7.25
2024-01-06T00:38:47.927Z,7.50
2024-01-06T00:40:49.401Z,7.28
2024-01-06T00:42:50.885Z,7.07
2024-01-06T00:44:52.432Z,6.47
2024-01-06T00:46:53.966Z,6.68
2024-01-06T00:48:55.508Z,7.07
2024-01-06T00:50:57.166Z,6.50
2024-01-06T00:52:58.580Z,6.72
2024-01-06T00:55:00.039Z,7.28
2024-01-06T00:57:01.739Z,6.82
2024-01-06T00:59:03.193Z,6.97
2024-01-06T01:01:05.000Z,6.60
2024-01-06T01:03:06.619Z,7.32
2024-01-06T01:05:08.878Z,6.57
2024-01-06T01:07:10.372Z,7.15
2024-01-06T01:09:14.660Z,7.00
2024-01-06T01:11:16.332Z,7.07
2024-01-06T01:13:18.434Z,7.88
2024-01-06T01:15:19.993Z,7.43
2024-01-06T01:17:21.686Z,8.00
2024-01-06T01:19:23.253Z,8.00
2024-01-06T01:21:25.118Z,7.13
2024-01-06T01:23:26.576Z,7.03
2024-01-06T01:25:28.102Z,7.53
2024-01-06T01:27:29.634Z,7.75
2024-01-06T01:29:31.179Z,7.00
2024-01-06T01:31:32.817Z,6.68
2024-01-06T01:33:34.767Z,7.50
2024-01-06T01:35:36.344Z,7.05
2024-01-06T01:37:37.799Z,6.75
2024-01-06T01:39:39.262Z,7.32
2024-01-06T01:41:41.817Z,7.07
2024-01-06T01:43:43.356Z,7.43
2024-01-06T01:45:45.293Z,6.65
2024-01-06T01:47:47.165Z,6.85
2024-01-06T01:49:49.156Z,6.72
2024-01-06T01:51:51.154Z,6.70
2024-01-06T01:53:53.081Z,6.85
2024-01-06T01:55:55.202Z,6.53
2024-01-06T01:57:56.662Z,6.93
2024-01-06T01:59:58.275Z,6.25
2024-01-06T02:01:59.741Z,6.43
2024-01-06T02:04:01.321Z,6.10
2024-01-06T02:06:03.397Z,6.43
2024-01-06T02:08:05.551Z,6.22
2024-01-06T02:10:07.835Z,6.63
2024-01-06T02:12:09.565Z,6.55
2024-01-06T02:14:11.024Z,6.30
2024-01-06T02:16:12.496Z,7.05
2024-01-06T02:18:14.139Z,6.57
2024-01-06T02:20:17.356Z,6.25
2024-01-06T02:22:18.826Z,6.53
2024-01-06T02:24:21.000Z,6.13
2024-01-06T02:26:22.483Z,6.28
2024-01-06T02:28:24.048Z,6.10
2024-01-06T02:30:25.662Z,6.47
2024-01-06T02:32:27.431Z,6.07
2024-01-06T02:34:28.969Z,6.70
2024-01-06T02:36:30.529Z,5.97
2024-01-06T02:38:32.016Z,6.10
2024-01-06T02:40:33.720Z,5.75
2024-01-06T02:42:35.323Z,5.90
2024-01-06T02:44:36.832Z,6.07
2024-01-06T02:46:38.305Z,5.85
2024-01-06T02:48:40.104Z,6.07
2024-01-06T02:50:41.617Z,5.28
2024-01-06T02:52:43.910Z,6.18
2024-01-06T02:54:45.374Z,6.20
2024-01-06T02:56:46.869Z,5.15
2024-01-06T02:58:48.410Z,5.95
2024-01-06T03:00:49.956Z,5.80
2024-01-06T03:02:51.563Z,5.78
2024-01-06T03:04:53.599Z,5.85
2024-01-06T03:06:55.269Z,5.65
2024-01-06T03:08:56.780Z,6.28
2024-01-06T03:10:58.536Z,6.13
2024-01-06T03:13:00.146Z,6.60
2024-01-06T03:15:01.778Z,5.57
2024-01-06T03:17:03.900Z,5.55
2024-01-06T03:19:05.484Z,5.82
2024-01-06T03:21:20.796Z,5.80
2024-01-06T03:23:22.418Z,6.50
2024-01-06T03:25:23.894Z,5.70
2024-01-06T03:27:25.572Z,5.40
2024-01-06T03:29:27.082Z,5.65
2024-01-06T03:32:29.799Z,5.90
2024-01-06T03:34:31.402Z,5.47
2024-01-06T03:39:08.263Z,5.57
2024-01-06T03:41:09.749Z,6.05
2024-01-06T03:43:11.504Z,6.25
2024-01-06T03:45:13.035Z,5.80
2024-01-06T03:47:28.724Z,5.72
2024-01-06T03:49:30.414Z,5.72
2024-01-06T03:51:34.597Z,6.00
2024-01-06T03:53:36.174Z,5.80
2024-01-06T03:55:37.641Z,5.85
2024-01-06T03:57:39.167Z,5.70
2024-01-06T03:59:40.612Z,5.80
2024-01-06T04:01:42.173Z,6.30
2024-01-06T04:03:43.856Z,5.65
2024-01-06T04:05:45.530Z,5.47
2024-01-06T04:07:47.114Z,6.00
2024-01-06T04:09:48.634Z,6.03
2024-01-06T04:11:50.098Z,5.82
2024-01-06T04:13:51.528Z,5.82
2024-01-06T04:15:53.045Z,5.85
2024-01-06T04:17:56.081Z,5.15
2024-01-06T04:19:57.700Z,5.00
2024-01-06T04:21:59.198Z,5.35
2024-01-06T04:24:00.663Z,6.00
2024-01-06T04:26:02.716Z,5.97
2024-01-06T04:28:04.472Z,5.90
2024-01-06T04:30:06.481Z,5.40
2024-01-06T04:32:08.717Z,5.32
2024-01-06T04:34:10.357Z,5.45
2024-01-06T04:36:11.954Z,5.57
2024-01-06T04:38:13.452Z,6.00
2024-01-06T04:40:14.993Z,5.57
2024-01-06T04:42:16.553Z,5.93
2024-01-06T04:44:21.766Z,5.63
2024-01-06T04:46:23.244Z,5.57
2024-01-06T04:48:25.316Z,5.18
2024-01-06T04:50:26.925Z,5.68
2024-01-06T04:52:28.533Z,5.68
2024-01-06T04:54:30.048Z,5.70
2024-01-06T04:56:34.046Z,5.72
2024-01-06T04:58:37.247Z,5.57
2024-01-06T05:00:38.809Z,6.13
2024-01-06T05:02:40.420Z,6.10
2024-01-06T05:04:41.962Z,6.10
2024-01-06T05:06:43.468Z,6.35
2024-01-06T05:08:45.982Z,6.20
2024-01-06T05:10:50.007Z,5.50
2024-01-06T05:12:52.248Z,6.15
2024-01-06T05:14:53.737Z,6.05
2024-01-06T05:16:55.243Z,5.68
2024-01-06T05:18:56.765Z,5.30
2024-01-06T05:20:58.645Z,5.28
2024-01-06T05:23:00.102Z,5.10
2024-01-06T05:25:01.532Z,4.93
2024-01-06T05:27:03.090Z,5.40
2024-01-06T05:29:04.586Z,4.80
2024-01-06T05:31:06.514Z,5.00
2024-01-06T05:33:14.218Z,5.03
2024-01-06T05:35:17.567Z,5.22
2024-01-06T05:37:19.042Z,5.10
2024-01-06T05:39:20.590Z,5.35
2024-01-06T05:41:22.127Z,5.35
2024-01-06T05:43:23.708Z,5.40
2024-01-06T05:45:27.582Z,5.38
2024-01-06T05:47:31.625Z,6.15
2024-01-06T05:49:33.258Z,5.60
2024-01-06T05:51:34.836Z,5.95
2024-01-06T05:53:37.176Z,6.25
2024-01-06T05:55:39.676Z,6.32
2024-01-06T05:57:41.206Z,6.63
2024-01-06T05:59:42.680Z,5.68
2024-01-06T06:01:44.869Z,5.97
2024-01-06T06:03:47.822Z,7.10
2024-01-06T06:05:49.365Z,6.30
2024-01-06T06:07:51.310Z,6.85
2024-01-06T06:11:55.724Z,7.80
2024-01-06T06:13:57.168Z,7.65
2024-01-06T06:15:59.044Z,7.40
2024-01-06T06:18:01.848Z,7.95
2024-01-06T06:20:04.165Z,7.25
2024-01-06T06:22:05.888Z,6.80
2024-01-06T06:24:07.816Z,6.30
2024-01-06T06:26:09.837Z,6.50
2024-01-06T06:28:11.379Z,6.63
2024-01-06T06:30:13.602Z,6.65
2024-01-06T06:32:15.157Z,6.63
2024-01-06T06:34:16.836Z,7.10
2024-01-06T06:36:18.448Z,6.18
2024-01-06T06:38:19.917Z,6.47
2024-01-06T06:40:21.457Z,6.32
2024-01-06T06:42:23.147Z,5.93
2024-01-06T06:44:25.091Z,5.70
2024-01-06T06:46:26.636Z,5.95
2024-01-06T06:48:28.111Z,6.32
2024-01-06T06:50:29.578Z,6.88
2024-01-06T06:52:31.056Z,7.70
2024-01-06T06:54:32.634Z,7.28
2024-01-06T06:56:34.115Z,7.13
2024-01-06T06:58:35.527Z,6.72
2024-01-06T07:00:37.071Z,5.47
2024-01-06T07:02:38.950Z,5.75
2024-01-06T07:04:40.521Z,5.18
2024-01-06T07:06:42.133Z,5.28
2024-01-06T07:08:43.724Z,5.47
2024-01-06T07:10:45.280Z,5.72
2024-01-06T07:12:46.862Z,7.32
2024-01-06T07:14:48.493Z,8.10
2024-01-06T07:16:50.036Z,8.15
2024-01-06T07:18:51.698Z,7.82
2024-01-06T07:20:53.257Z,9.52
2024-01-06T07:22:54.756Z,9.82
2024-01-06T07:24:56.311Z,9.23
2024-01-06T07:26:59.784Z,7.60
2024-01-06T07:29:01.247Z,5.97
2024-01-06T07:31:02.997Z,6.13
2024-01-06T07:33:04.928Z,5.55
2024-01-06T07:35:08.326Z,5.10
2024-01-06T07:37:10.108Z,5.60
2024-01-06T07:39:11.710Z,5.35
2024-01-06T07:41:13.361Z,6.00
2024-01-06T07:43:16.341Z,5.88
2024-01-06T07:45:18.156Z,7.07
2024-01-06T07:47:19.642Z,6.90
2024-01-06T07:49:24.206Z,7.22
2024-01-06T07:51:26.215Z,7.78
2024-01-06T07:53:27.731Z,8.18
2024-01-06T07:55:29.924Z,7.63
2024-01-06T07:57:31.568Z,6.78
2024-01-06T07:59:35.985Z,7.20
2024-01-06T08:01:37.459Z,6.53
2024-01-06T08:03:38.956Z,6.65
2024-01-06T08:05:40.591Z,6.25
2024-01-06T08:07:43.363Z,6.93
2024-01-06T08:09:44.940Z,9.18
2024-01-06T08:11:49.260Z,9.50
2024-01-06T08:13:50.765Z,9.13
2024-01-06T08:15:52.401Z,8.70
2024-01-06T08:17:54.114Z,8.18
2024-01-06T08:19:56.151Z,7.10
2024-01-06T08:21:57.741Z,7.53
2024-01-06T08:23:59.227Z,7.63
2024-01-06T08:26:00.936Z,8.10
2024-01-06T08:28:02.419Z,8.32
2024-01-06T08:30:04.627Z,7.07
2024-01-06T08:32:06.594Z,6.72
2024-01-06T08:34:09.298Z,6.85
2024-01-06T08:36:10.966Z,6.82
2024-01-06T08:38:12.440Z,7.05
2024-01-06T08:40:14.008Z,6.68
2024-01-06T08:42:16.010Z,6.30
2024-01-06T08:44:17.527Z,6.57
2024-01-06T08:46:18.977Z,8.30
2024-01-06T08:48:21.192Z,11.70
2024-01-06T08:50:22.729Z,13.55
2024-01-06T08:52:24.237Z,13.63
2024-01-06T08:54:26.301Z,13.95
2024-01-06T08:56:27.809Z,14.50
2024-01-06T08:58:29.265Z,12.77
2024-01-06T09:00:32.936Z,10.98
2024-01-06T09:02:34.456Z,10.20
2024-01-06T09:04:36.011Z,11.90
2024-01-06T09:06:37.535Z,14.32
2024-01-06T09:08:39.004Z,12.85
2024-01-06T09:10:40.485Z,11.55
2024-01-06T09:12:41.940Z,11.60
2024-01-06T09:14:43.481Z,11.23
2024-01-06T09:16:44.953Z,9.98
2024-01-06T09:18:46.571Z,9.57
2024-01-06T09:20:51.137Z,8.43
2024-01-06T09:22:52.803Z,8.63
2024-01-06T09:24:54.353Z,7.40
2024-01-06T09:26:56.004Z,7.75
2024-01-06T09:28:57.481Z,8.48
2024-01-06T09:30:59.074Z,8.00
2024-01-06T09:33:00.641Z,8.45
2024-01-06T09:35:02.221Z,8.68
2024-01-06T09:37:04.229Z,8.35
2024-01-06T09:39:05.701Z,8.40
2024-01-06T09:41:07.324Z,9.13
2024-01-06T09:43:08.823Z,9.43
2024-01-06T09:45:10.489Z,10.65
2024-01-06T09:47:13.312Z,10.98
2024-01-06T09:49:16.297Z,11.48
2024-01-06T09:51:20.862Z,12.95
2024-01-06T09:53:24.508Z,11.50
2024-01-06T09:55:27.708Z,10.95
2024-01-06T09:57:30.074Z,12.00
2024-01-06T09:59:35.729Z,12.68
2024-01-06T10:01:37.406Z,10.85
2024-01-06T10:03:39.285Z,9.75
2024-01-06T10:05:41.657Z,9.10
2024-01-06T10:07:44.878Z,8.23
2024-01-06T10:09:46.429Z,8.10
2024-01-06T10:11:51.101Z,8.15
2024-01-06T10:13:53.321Z,8.10
2024-01-06T10:15:55.809Z,8.90
2024-01-06T10:17:58.271Z,9.10
2024-01-06T10:20:01.271Z,9.38
2024-01-06T10:22:06.348Z,9.50
2024-01-06T10:24:09.505Z,8.82
2024-01-06T10:26:14.312Z,9.15
2024-01-06T10:28:15.873Z,9.07
2024-01-06T10:30:19.444Z,9.07
2024-01-06T10:32:21.098Z,9.90
2024-01-06T10:34:26.284Z,9.65
2024-01-06T10:36:29.695Z,9.98
2024-01-06T10:38:31.413Z,9.73
2024-01-06T10:42:34.684Z,8.73
2024-01-06T10:44:38.291Z,8.60
2024-01-06T10:46:40.742Z,8.30
2024-01-06T10:48:46.889Z,7.78
2024-01-06T10:50:49.177Z,7.60
2024-01-06T10:52:51.700Z,7.95
2024-01-06T10:54:55.055Z,7.10
2024-01-06T10:56:58.450Z,7.13
2024-01-06T10:59:02.216Z,7.03
2024-01-06T11:01:04.463Z,5.97
2024-01-06T11:03:07.321Z,5.80
2024-01-06T11:05:11.589Z,5.80
2024-01-06T11:07:16.123Z,5.75
2024-01-06T11:09:22.514Z,5.28
2024-01-06T11:11:24.947Z,5.15
2024-01-06T11:13:27.299Z,5.20
2024-01-06T11:15:52.183Z,6.00
2024-01-06T11:18:00.157Z,5.88
2024-01-06T11:20:09.033Z,5.85
2024-01-06T11:22:32.676Z,5.75
2024-01-06T11:24:38.263Z,5.20
2024-01-06T11:26:41.422Z,6.30
2024-01-06T11:28:47.649Z,6.03
2024-01-06T11:31:06.206Z,5.50
2024-01-06T11:33:09.534Z,5.78
2024-01-06T11:35:16.251Z,6.22
2024-01-06T11:37:28.420Z,5.68
2024-01-06T11:39:39.639Z,5.50
2024-01-06T11:41:52.492Z,4.93
2024-01-06T11:43:55.024Z,5.50
2024-01-06T11:46:00.489Z,5.63
2024-01-06T11:48:07.958Z,5.55
2024-01-06T11:50:10.662Z,5.22
2024-01-06T11:52:14.506Z,5.75
2024-01-06T11:54:16.188Z,5.38
2024-01-06T11:56:23.493Z,5.07
2024-01-06T11:58:26.260Z,5.68
2024-01-06T12:00:28.014Z,5.35
2024-01-06T12:02:29.504Z,5.00
2024-01-06T12:04:31.242Z,5.97
2024-01-06T12:06:33.628Z,5.07
2024-01-06T12:08:35.147Z,5.07
2024-01-06T12:10:39.312Z,5.47
2024-01-06T12:12:40.858Z,5.00
2024-01-06T12:14:46.478Z,6.00
2024-01-06T12:16:48.035Z,5.47
2024-01-06T12:18:52.526Z,5.43
2024-01-06T12:20:55.233Z,5.47
2024-01-06T12:22:57.050Z,5.00
2024-01-06T12:24:59.860Z,5.25
2024-01-06T12:27:01.391Z,4.95
2024-01-06T12:29:05.373Z,5.47
2024-01-06T12:31:10.655Z,5.25
2024-01-06T12:33:12.547Z,6.35
2024-01-06T12:35:15.271Z,7.13
2024-01-06T12:37:18.194Z,7.97
2024-01-06T12:39:19.775Z,8.30
2024-01-06T12:41:22.077Z,9.07
2024-01-06T12:43:23.525Z,8.30
2024-01-06T12:45:25.129Z,8.13
2024-01-06T12:47:26.692Z,7.85
2024-01-06T12:49:28.250Z,8.35
2024-01-06T12:51:29.926Z,8.23
2024-01-06T12:53:31.629Z,7.70
2024-01-06T12:55:33.135Z,7.63
2024-01-06T12:57:35.065Z,7.63
2024-01-06T12:59:36.812Z,7.13
2024-01-06T13:01:38.754Z,7.57
2024-01-06T13:03:40.491Z,7.40
2024-01-06T13:05:42.034Z,7.50
2024-01-06T13:07:43.521Z,7.88
2024-01-06T13:09:45.588Z,8.57
2024-01-06T13:11:48.219Z,8.15
2024-01-06T13:13:52.281Z,8.98
2024-01-06T13:15:53.873Z,8.70
2024-01-06T13:17:58.909Z,8.68
2024-01-06T13:20:01.050Z,8.93
2024-01-06T13:22:08.685Z,9.57
2024-01-06T13:24:11.350Z,10.45
2024-01-06T13:26:16.042Z,10.18
2024-01-06T13:28:20.973Z,11.02
2024-01-06T13:30:22.564Z,10.45
2024-01-06T13:32:24.350Z,9.75
2024-01-06T13:34:26.576Z,10.20
2024-01-06T13:36:28.281Z,10.00
2024-01-06T13:38:29.860Z,9.75
2024-01-06T13:40:31.768Z,9.55
2024-01-06T13:42:33.258Z,9.15
2024-01-06T13:44:34.804Z,8.85
2024-01-06T13:46:36.346Z,10.20
2024-01-06T13:48:37.903Z,9.63
2024-01-06T13:53:25.238Z,8.18
2024-01-06T13:55:26.818Z,8.65
2024-01-06T13:57:28.362Z,8.10
2024-01-06T13:59:29.827Z,7.72
2024-01-06T14:01:31.673Z,7.15
2024-01-06T14:03:34.132Z,6.00
2024-01-06T14:05:36.612Z,6.35
2024-01-06T14:07:39.684Z,7.63
2024-01-06T14:09:43.511Z,8.15
2024-01-06T14:11:50.620Z,7.43
2024-01-06T14:14:00.325Z,6.97
2024-01-06T14:16:02.082Z,6.88
2024-01-06T14:18:05.508Z,6.35
2024-01-06T14:20:13.964Z,5.53
2024-01-06T14:22:18.366Z,5.25
2024-01-06T14:24:24.603Z,5.60
2024-01-06T14:26:26.316Z,5.10
2024-01-06T14:28:27.793Z,4.75
2024-01-06T14:30:30.409Z,4.82
2024-01-06T14:32:34.224Z,4.65
2024-01-06T14:34:35.758Z,4.70
2024-01-06T14:36:41.499Z,4.82
2024-01-06T14:38:45.966Z,5.07
2024-01-06T14:40:47.621Z,4.60
2024-01-06T14:42:49.806Z,4.80
2024-01-06T14:44:51.315Z,5.40
2024-01-06T14:46:56.553Z,6.43
2024-01-06T14:48:58.254Z,6.63
2024-01-06T14:50:59.712Z,7.47
2024-01-06T14:53:01.213Z,8.13
2024-01-06T14:55:02.742Z,7.38
2024-01-06T14:57:04.389Z,6.35
2024-01-06T14:59:07.261Z,5.38
2024-01-06T15:01:08.924Z,5.32
2024-01-06T15:03:10.414Z,4.65
2024-01-06T15:05:22.650Z,4.78
2024-01-06T15:08:00.433Z,4.10
2024-01-06T15:10:05.675Z,5.78
2024-01-06T15:15:24.343Z,7.40
2024-01-06T15:17:42.279Z,7.35
2024-01-06T15:19:59.261Z,7.30
2024-01-06T15:22:19.738Z,7.60
2024-01-06T15:24:21.367Z,7.20
2024-01-06T15:26:26.072Z,7.57
2024-01-06T15:28:33.344Z,7.90
2024-01-06T15:30:35.265Z,8.10
2024-01-06T15:32:38.739Z,8.82
2024-01-06T15:34:40.362Z,9.27
2024-01-06T15:36:42.199Z,9.70
2024-01-06T15:38:43.765Z,9.30
2024-01-06T15:40:45.276Z,8.52
2024-01-06T15:42:46.786Z,9.40
2024-01-06T15:44:48.342Z,9.48
2024-01-06T15:46:50.544Z,8.93
2024-01-06T15:48:52.080Z,9.55
2024-01-06T15:50:53.720Z,9.05
2024-01-06T15:52:55.187Z,9.65
2024-01-06T15:54:57.529Z,9.85
2024-01-06T15:56:59.022Z,8.88
2024-01-06T15:59:01.477Z,9.38
2024-01-06T16:01:05.153Z,8.18
2024-01-06T16:03:07.450Z,7.78
2024-01-06T16:05:11.749Z,7.32
2024-01-06T16:07:13.449Z,7.65
2024-01-06T16:09:15.652Z,7.03
2024-01-06T16:11:17.657Z,6.97
2024-01-06T16:13:20.634Z,7.03
2024-01-06T16:15:22.195Z,7.22
2024-01-06T16:17:26.863Z,6.72
2024-01-06T16:19:29.395Z,6.93
2024-01-06T16:21:32.184Z,6.95
2024-01-06T16:23:33.740Z,6.70
2024-01-06T16:25:38.476Z,6.72
2024-01-06T16:27:42.226Z,6.63
2024-01-06T16:29:46.469Z,7.38
2024-01-06T16:31:48.232Z,7.47
2024-01-06T16:33:50.034Z,7.25
2024-01-06T16:35:51.607Z,7.68
2024-01-06T16:37:53.093Z,6.90
2024-01-06T16:39:54.599Z,7.43
2024-01-06T16:41:58.244Z,7.32
2024-01-06T16:43:59.730Z,6.65
2024-01-06T16:46:01.281Z,6.97
2024-01-06T16:48:04.226Z,6.20
2024-01-06T16:50:06.461Z,6.28
2024-01-06T16:52:08.035Z,6.75
2024-01-06T16:54:09.598Z,6.70
2024-01-06T16:56:11.358Z,6.68
2024-01-06T16:58:15.568Z,6.75
2024-01-06T17:00:20.371Z,6.57
2024-01-06T17:02:21.814Z,6.75
2024-01-06T17:04:23.717Z,6.13
2024-01-06T17:06:25.412Z,6.80
2024-01-06T17:08:26.942Z,7.20
2024-01-06T17:10:28.468Z,7.30
2024-01-06T17:12:30.025Z,7.78
2024-01-06T17:14:31.497Z,9.00
2024-01-06T17:16:33.318Z,10.02
2024-01-06T17:18:34.936Z,9.88
2024-01-06T17:20:40.538Z,13.00
2024-01-06T17:22:55.874Z,13.32
2024-01-06T17:24:57.327Z,13.77
2024-01-06T17:26:58.778Z,13.57
2024-01-06T17:29:02.356Z,14.27
2024-01-06T17:31:04.480Z,13.00
2024-01-06T17:33:06.102Z,11.52
2024-01-06T17:35:08.594Z,10.70
2024-01-06T17:37:10.106Z,9.68
2024-01-06T17:39:11.584Z,9.90
2024-01-06T17:41:14.114Z,10.50
2024-01-06T17:43:15.691Z,10.18
2024-01-06T17:45:17.255Z,9.27
2024-01-06T17:47:20.015Z,8.73
2024-01-06T17:49:22.255Z,9.45
2024-01-06T17:51:28.765Z,9.20
2024-01-06T17:53:31.121Z,8.95
2024-01-06T17:55:33.478Z,9.75
2024-01-06T17:57:36.004Z,11.32
2024-01-06T17:59:37.740Z,12.18
2024-01-06T18:01:39.286Z,12.55
2024-01-06T18:03:41.723Z,11.88
2024-01-06T18:05:43.325Z,12.43
2024-01-06T18:07:44.921Z,11.23
2024-01-06T18:09:46.506Z,11.90
2024-01-06T18:11:48.901Z,9.90
2024-01-06T18:13:50.438Z,10.20
2024-01-06T18:15:52.025Z,10.35
2024-01-06T18:17:53.565Z,10.32
2024-01-06T18:19:55.142Z,10.35
2024-01-06T18:22:00.274Z,9.73
2024-01-06T18:24:07.070Z,10.80
2024-01-06T18:26:08.565Z,9.65
2024-01-06T18:28:25.872Z,8.95
2024-01-06T18:30:27.434Z,9.48
2024-01-06T18:32:29.144Z,9.27
2024-01-06T18:34:31.235Z,9.27
2024-01-06T18:36:33.442Z,9.45
2024-01-06T18:38:35.194Z,9.40
2024-01-06T18:40:36.975Z,9.30
2024-01-06T18:42:38.601Z,9.30
2024-01-06T18:44:40.527Z,10.25
2024-01-06T18:46:43.441Z,9.90
2024-01-06T18:48:45.109Z,11.77
2024-01-06T18:50:48.285Z,11.02
2024-01-06T18:52:50.416Z,11.40
2024-01-06T18:54:54.168Z,9.98
2024-01-06T18:56:55.726Z,10.32
2024-01-06T18:58:57.136Z,9.00
2024-01-06T19:00:58.799Z,8.63
2024-01-06T19:03:01.590Z,8.30
2024-01-06T19:05:03.680Z,8.43
2024-01-06T19:07:05.252Z,8.73
2024-01-06T19:09:07.668Z,9.13
2024-01-06T19:11:10.147Z,8.40
2024-01-06T19:13:13.123Z,8.82
2024-01-06T19:15:14.690Z,8.52
2024-01-06T19:17:17.159Z,8.65
2024-01-06T19:19:22.174Z,8.57
2024-01-06T19:21:24.335Z,8.65
2024-01-06T19:23:25.785Z,9.23
2024-01-06T19:25:27.526Z,8.95
2024-01-06T19:27:30.382Z,9.70
2024-01-06T19:29:32.326Z,9.60
2024-01-06T19:31:33.930Z,9.63
2024-01-06T19:33:35.737Z,9.95
2024-01-06T19:35:37.311Z,9.85
2024-01-06T19:37:38.991Z,9.77
2024-01-06T19:39:40.841Z,9.65
2024-01-06T19:41:42.346Z,10.82
2024-01-06T19:43:44.212Z,9.90
2024-01-06T19:45:45.717Z,8.88
2024-01-06T19:47:47.410Z,9.57
2024-01-06T19:49:49.054Z,9.82
2024-01-06T19:51:51.252Z,9.85
2024-01-06T19:53:52.769Z,10.13
2024-01-06T19:55:54.648Z,9.35
2024-01-06T19:57:56.223Z,9.55
2024-01-06T19:59:59.787Z,9.77
2024-01-06T20:02:01.387Z,9.45
2024-01-06T20:04:02.970Z,9.50
2024-01-06T20:06:06.324Z,10.35
2024-01-06T20:08:08.683Z,9.30
2024-01-06T20:10:12.131Z,9.80
2024-01-06T20:12:13.953Z,9.48
2024-01-06T20:14:15.421Z,8.77
2024-01-06T20:16:17.324Z,8.90
2024-01-06T20:18:18.923Z,8.25
2024-01-06T20:20:20.405Z,8.30
2024-01-06T20:22:22.551Z,8.40
2024-01-06T20:24:24.200Z,9.13
2024-01-06T20:26:27.080Z,9.07
2024-01-06T20:28:28.849Z,8.90
2024-01-06T20:30:30.511Z,9.00
2024-01-06T20:32:33.552Z,9.55
2024-01-06T20:34:36.402Z,8.68
2024-01-06T20:36:37.917Z,9.25
2024-01-06T20:38:40.180Z,8.07
2024-01-06T20:40:42.722Z,8.88
2024-01-06T20:42:44.227Z,8.18
2024-01-06T20:44:45.774Z,7.53
2024-01-06T20:46:48.861Z,6.85
2024-01-06T20:48:50.634Z,6.82
2024-01-06T20:50:52.364Z,6.55
2024-01-06T20:52:54.009Z,6.60
2024-01-06T20:57:54.027Z,7.13
2024-01-06T21:00:57.118Z,7.32
2024-01-06T21:02:59.051Z,6.68
2024-01-06T21:05:05.143Z,6.75
2024-01-06T21:07:07.672Z,7.47
2024-01-06T21:09:10.458Z,7.22
2024-01-06T21:11:12.038Z,7.20
2024-01-06T21:13:13.489Z,7.28
2024-01-06T21:15:15.637Z,7.72
2024-01-06T21:17:17.168Z,7.47
2024-01-06T21:19:20.040Z,7.80
2024-01-06T21:21:21.787Z,7.43
2024-01-06T21:23:35.469Z,7.60
2024-01-06T21:25:46.628Z,7.07
2024-01-06T21:27:48.821Z,6.85
2024-01-06T21:29:50.312Z,6.40
2024-01-06T21:31:52.155Z,6.05
2024-01-06T21:33:55.943Z,6.00
2024-01-06T21:35:58.462Z,6.30
2024-01-06T21:38:13.012Z,5.65
2024-01-06T21:40:14.881Z,6.03
2024-01-06T21:42:19.169Z,6.10
2024-01-06T21:44:24.226Z,6.00
2024-01-06T21:46:25.858Z,5.55
2024-01-06T21:51:23.315Z,5.80
2024-01-06T21:53:24.761Z,6.28
2024-01-06T21:55:26.729Z,6.00
2024-01-06T21:57:28.249Z,6.63
2024-01-06T21:59:29.939Z,7.20
2024-01-06T22:01:31.494Z,7.25
2024-01-06T22:03:33.155Z,7.03
2024-01-06T22:05:34.696Z,6.53
2024-01-06T22:07:36.252Z,7.55
2024-01-06T22:09:37.761Z,7.32
2024-01-06T22:11:39.558Z,7.25
2024-01-06T22:13:41.354Z,6.80
2024-01-06T22:15:42.889Z,6.53
2024-01-06T22:17:44.433Z,7.03
2024-01-06T22:19:45.984Z,7.47
2024-01-06T22:21:50.266Z,9.85
2024-01-06T22:23:52.216Z,10.80
2024-01-06T22:25:53.714Z,11.15
2024-01-06T22:27:55.801Z,10.07
2024-01-06T22:29:57.323Z,9.70
2024-01-06T22:31:59.082Z,9.52
2024-01-06T22:34:01.002Z,8.13
2024-01-06T22:36:02.520Z,8.18
2024-01-06T22:38:04.328Z,7.90
2024-01-06T22:40:06.937Z,7.60
2024-01-06T22:42:09.071Z,7.20
2024-01-06T22:44:10.572Z,7.03
2024-01-06T22:46:12.200Z,6.47
2024-01-06T22:48:13.708Z,6.22
2024-01-06T22:50:15.321Z,6.43
2024-01-06T22:52:16.810Z,6.28
2024-01-06T22:54:18.503Z,6.82
2024-01-06T22:56:20.117Z,5.97
2024-01-06T22:58:21.692Z,5.45
2024-01-06T23:00:28.915Z,5.75
2024-01-06T23:02:30.851Z,5.57
2024-01-06T23:04:32.397Z,5.70
2024-01-06T23:06:34.001Z,5.60
2024-01-06T23:08:36.607Z,5.53
2024-01-06T23:10:38.720Z,5.90
2024-01-06T23:12:40.350Z,5.80
2024-01-06T23:14:41.809Z,5.43
2024-01-06T23:16:44.267Z,4.90
2024-01-06T23:18:46.159Z,5.50
2024-01-06T23:20:47.934Z,5.80
2024-01-06T23:22:49.610Z,5.30
2024-01-06T23:24:51.082Z,5.03
2024-01-06T23:26:52.563Z,4.75
2024-01-06T23:28:54.517Z,5.13
2024-01-06T23:30:56.145Z,4.55
2024-01-06T23:32:57.842Z,4.82
2024-01-06T23:34:59.857Z,5.30
2024-01-06T23:37:01.538Z,4.80
2024-01-06T23:39:03.103Z,4.70
2024-01-06T23:41:05.016Z,5.03
2024-01-06T23:43:08.647Z,5.10
2024-01-06T23:45:10.249Z,5.40
2024-01-06T23:47:11.801Z,5.18
2024-01-06T23:49:14.908Z,5.07
2024-01-06T23:51:18.497Z,4.85
2024-01-06T23:53:20.056Z,4.90
2024-01-06T23:55:21.762Z,5.07
2024-01-06T23:57:23.254Z,4.75
2024-01-06T23:59:24.784Z,5.03
